Time;durP1;ratioP1;P1;durP2;ratioP2;P2;SDS_P1;SDS_P2;PMS_P1;PMS_P2;Temp;Humidity;BMP_temperature;BMP_pressure;BME280_temperature;BME280_humidity;BME280_pressure;Samples;Min_cycle;Max_cycle;Signal;HPM_P1;HPM_P2
2023/02/05 00:01:20;;;;;;;31.73;13.73;;;5.60;99.90;;;;;;5038116;28;20499;-66
2023/02/05 00:03:46;;;;;;;42.72;14.23;;;5.50;99.90;;;;;;5051139;28;20438;-65
2023/02/05 00:06:12;;;;;;;34.90;12.15;;;5.50;99.90;;;;;;5058313;28;20027;-66
2023/02/05 00:08:37;;;;;;;37.95;13.88;;;5.50;99.90;;;;;;5053141;28;20033;-66
2023/02/05 00:11:08;;;;;;;44.55;15.00;;;5.40;99.90;;;;;;5053453;28;20096;-67
2023/02/05 00:13:35;;;;;;;39.08;14.65;;;5.40;99.90;;;;;;5053691;28;20021;-66
2023/02/05 00:16:06;;;;;;;39.95;14.48;;;5.50;99.90;;;;;;5053736;28;20033;-66
2023/02/05 00:18:32;;;;;;;37.03;13.73;;;5.40;99.90;;;;;;5054956;28;20080;-66
2023/02/05 00:20:57;;;;;;;35.20;13.73;;;5.50;99.90;;;;;;5060453;28;20443;-66
2023/02/05 00:23:23;;;;;;;51.22;15.73;;;5.50;99.90;;;;;;5050864;28;20053;-66
2023/02/05 00:25:49;;;;;;;31.58;13.60;;;5.50;99.90;;;;;;5050794;28;20037;-65
2023/02/05 00:28:14;;;;;;;43.95;14.88;;;5.40;99.90;;;;;;5054941;28;20021;-65
2023/02/05 00:30:40;;;;;;;35.15;14.38;;;5.40;99.90;;;;;;5040609;28;20037;-65
2023/02/05 00:33:06;;;;;;;29.88;14.10;;;5.40;99.90;;;;;;5040802;28;20136;-66
2023/02/05 00:35:32;;;;;;;43.30;14.77;;;5.50;99.90;;;;;;5046709;28;20571;-67
2023/02/05 00:37:57;;;;;;;28.15;14.15;;;5.50;99.90;;;;;;5046403;28;20034;-66
2023/02/05 00:40:23;;;;;;;31.95;13.35;;;5.50;99.90;;;;;;5041180;28;20039;-66
2023/02/05 00:42:48;;;;;;;38.17;13.75;;;5.50;99.90;;;;;;5043474;28;20063;-66
2023/02/05 00:45:14;;;;;;;45.17;14.48;;;5.50;99.90;;;;;;5050361;28;20041;-66
2023/02/05 00:47:39;;;;;;;35.05;13.52;;;5.50;99.90;;;;;;5054465;28;20160;-66
2023/02/05 00:50:05;;;;;;;33.45;13.93;;;5.50;99.90;;;;;;5046108;28;20557;-65
2023/02/05 00:52:31;;;;;;;29.73;12.35;;;5.50;99.90;;;;;;5050676;28;20041;-66
2023/02/05 00:54:57;;;;;;;41.10;14.95;;;5.50;99.90;;;;;;5027870;28;20052;-65
2023/02/05 00:57:23;;;;;;;42.20;15.30;;;5.60;99.90;;;;;;5052882;28;20029;-65
2023/02/05 00:59:51;;;;;;;39.42;14.38;;;5.60;99.90;;;;;;5042070;28;20063;-66
2023/02/05 01:02:22;;;;;;;34.30;13.52;;;5.50;99.90;;;;;;5045315;28;20710;-65
2023/02/05 01:04:48;;;;;;;37.80;13.82;;;5.60;99.90;;;;;;5051160;28;20407;-65
2023/02/05 01:07:14;;;;;;;35.83;14.07;;;5.50;99.90;;;;;;5048889;28;20822;-65
2023/02/05 01:09:39;;;;;;;38.95;14.63;;;5.50;99.90;;;;;;5031429;28;20056;-65
2023/02/05 01:12:05;;;;;;;46.22;14.70;;;5.50;99.90;;;;;;5051223;28;20025;-66
2023/02/05 01:14:31;;;;;;;41.28;14.10;;;5.50;99.90;;;;;;5053562;28;20023;-66
2023/02/05 01:16:56;;;;;;;40.25;14.80;;;5.50;99.90;;;;;;5046059;28;20024;-66
2023/02/05 01:19:22;;;;;;;31.92;14.68;;;5.50;99.90;;;;;;5049050;28;20025;-66
2023/02/05 01:21:47;;;;;;;36.20;14.07;;;5.60;99.90;;;;;;5051096;28;20050;-66
2023/02/05 01:24:13;;;;;;;34.60;13.77;;;5.70;99.90;;;;;;5048376;28;20400;-66
2023/02/05 01:26:38;;;;;;;31.77;14.25;;;5.60;99.90;;;;;;5057514;28;20169;-66
2023/02/05 01:29:04;;;;;;;36.90;14.45;;;5.50;99.90;;;;;;5060789;28;20035;-65
2023/02/05 01:31:30;;;;;;;30.38;13.65;;;5.40;99.90;;;;;;5050252;28;20468;-66
2023/02/05 01:33:55;;;;;;;32.85;14.95;;;5.30;99.90;;;;;;5053584;28;20017;-65
2023/02/05 01:36:21;;;;;;;37.17;14.02;;;5.30;99.90;;;;;;5050956;28;20036;-66
2023/02/05 01:38:47;;;;;;;39.38;15.40;;;5.30;99.90;;;;;;5037832;28;20033;-66
2023/02/05 01:41:13;;;;;;;32.20;14.35;;;5.20;99.90;;;;;;5044755;28;20025;-66
2023/02/05 01:43:39;;;;;;;38.20;14.75;;;5.20;99.90;;;;;;5038144;28;20086;-65
2023/02/05 01:46:19;;;;;;;37.55;15.02;;;5.20;99.90;;;;;;5059965;28;20024;-66
2023/02/05 01:48:49;;;;;;;38.67;15.93;;;5.20;99.90;;;;;;5054228;28;20017;-66
2023/02/05 01:51:16;;;;;;;38.35;15.70;;;5.20;99.90;;;;;;5036078;28;20025;-66
2023/02/05 01:53:43;;;;;;;40.78;15.20;;;5.20;99.90;;;;;;5046341;28;20029;-66
2023/02/05 01:56:17;;;;;;;44.47;14.98;;;5.20;99.90;;;;;;5029632;28;20516;-66
2023/02/05 01:58:56;;;;;;;40.20;15.20;;;5.20;99.90;;;;;;5029183;28;20396;-66
2023/02/05 02:01:24;;;;;;;44.53;15.13;;;5.20;99.90;;;;;;5045246;28;20025;-66
2023/02/05 02:03:53;;;;;;;43.92;15.00;;;5.20;99.90;;;;;;5043199;28;20028;-65
2023/02/05 02:06:18;;;;;;;32.17;13.80;;;5.30;99.90;;;;;;5046293;28;20028;-66
2023/02/05 02:08:44;;;;;;;36.40;15.20;;;5.30;99.90;;;;;;5044926;28;20021;-66
2023/02/05 02:11:12;;;;;;;39.40;14.85;;;5.20;99.90;;;;;;5040808;28;20495;-66
2023/02/05 02:13:39;;;;;;;38.78;15.52;;;5.30;99.90;;;;;;5045686;28;20671;-65
2023/02/05 02:16:06;;;;;;;34.50;14.35;;;5.30;99.90;;;;;;5026881;28;20637;-65
2023/02/05 02:18:35;;;;;;;38.60;14.10;;;5.30;99.90;;;;;;5043406;28;20022;-65
2023/02/05 02:21:44;;;;;;;37.38;15.98;;;5.30;99.90;;;;;;5042663;28;20643;-65
2023/02/05 02:24:39;;;;;;;36.17;14.48;;;5.30;99.90;;;;;;5032920;28;20107;-66
2023/02/05 02:27:14;;;;;;;37.95;14.52;;;5.30;99.90;;;;;;5036355;28;20026;-65
2023/02/05 02:29:44;;;;;;;42.00;15.57;;;5.30;99.90;;;;;;5034592;28;20041;-66
2023/02/05 02:32:16;;;;;;;37.72;14.90;;;5.20;99.90;;;;;;5044665;28;20040;-65
2023/02/05 02:34:48;;;;;;;34.17;14.38;;;5.20;99.90;;;;;;5060309;22;20407;-66
2023/02/05 02:37:24;;;;;;;38.30;13.95;;;5.30;99.90;;;;;;5021893;28;20029;-66
2023/02/05 02:39:59;;;;;;;34.92;14.90;;;5.30;99.90;;;;;;5049628;28;20073;-66
2023/02/05 02:42:40;;;;;;;37.22;15.77;;;5.30;99.90;;;;;;5047045;28;20025;-65
2023/02/05 02:45:11;;;;;;;31.77;13.95;;;5.30;99.90;;;;;;5050145;28;20037;-65
2023/02/05 02:47:44;;;;;;;40.58;14.55;;;5.30;99.90;;;;;;5046190;28;20110;-66
2023/02/05 02:50:19;;;;;;;40.03;14.88;;;5.40;99.90;;;;;;5024877;28;20017;-66
2023/02/05 02:52:47;;;;;;;45.90;15.48;;;5.30;99.90;;;;;;5029552;28;20487;-65
2023/02/05 02:55:14;;;;;;;46.55;15.98;;;5.30;99.90;;;;;;5038693;28;20435;-67
2023/02/05 02:57:44;;;;;;;46.83;15.32;;;5.30;99.90;;;;;;5023492;28;20049;-66
2023/02/05 03:00:15;;;;;;;38.30;14.95;;;5.20;99.90;;;;;;5043340;28;20017;-65
2023/02/05 03:02:46;;;;;;;42.00;15.90;;;5.20;99.90;;;;;;5046743;28;20154;-66
2023/02/05 03:05:19;;;;;;;36.80;15.77;;;5.20;99.90;;;;;;5047445;28;20045;-65
2023/02/05 03:07:49;;;;;;;36.85;14.88;;;5.20;99.90;;;;;;5030653;28;20029;-66
2023/02/05 03:10:43;;;;;;;44.70;16.10;;;5.20;99.90;;;;;;5049306;28;20025;-66
2023/02/05 03:13:10;;;;;;;47.22;16.45;;;5.20;99.90;;;;;;5042425;28;20029;-65
2023/02/05 03:15:40;;;;;;;46.15;16.75;;;5.20;99.90;;;;;;5048566;28;20021;-66
2023/02/05 03:18:06;;;;;;;45.75;16.13;;;5.20;99.90;;;;;;5031219;28;20033;-66
2023/02/05 03:20:46;;;;;;;37.58;14.25;;;5.10;99.90;;;;;;5050999;28;20372;-65
2023/02/05 03:23:12;;;;;;;39.55;15.63;;;5.00;99.90;;;;;;5048420;28;20629;-66
2023/02/05 03:25:37;;;;;;;43.05;16.13;;;5.00;99.90;;;;;;5044202;28;20053;-66
2023/02/05 03:28:03;;;;;;;49.63;15.98;;;5.00;99.90;;;;;;5036712;28;20025;-66
2023/02/05 03:30:41;;;;;;;43.13;15.13;;;5.00;99.90;;;;;;5046523;28;20029;-66
2023/02/05 03:33:42;;;;;;;28.17;14.00;;;5.00;99.90;;;;;;5043045;28;20395;-66
2023/02/05 03:36:39;;;;;;;42.47;15.55;;;5.00;99.90;;;;;;5044635;28;20040;-66
2023/02/05 03:39:10;;;;;;;38.95;14.85;;;5.00;99.90;;;;;;5037273;28;20070;-66
2023/02/05 03:42:18;;;;;;;44.40;16.70;;;5.00;99.90;;;;;;5052015;28;20500;-67
2023/02/05 03:44:59;;;;;;;27.80;13.93;;;5.00;99.90;;;;;;5008902;28;20119;-66
2023/02/05 03:47:42;;;;;;;49.53;15.23;;;5.00;99.90;;;;;;5053752;28;20032;-65
2023/02/05 03:50:22;;;;;;;38.55;14.75;;;5.00;99.90;;;;;;5044787;28;20399;-66
2023/02/05 03:53:00;;;;;;;36.28;15.75;;;5.00;99.90;;;;;;5046524;28;20017;-65
2023/02/05 03:55:29;;;;;;;37.75;14.80;;;5.10;99.90;;;;;;5044727;28;20037;-66
2023/02/05 03:58:07;;;;;;;36.10;14.40;;;5.10;99.90;;;;;;5035583;28;21217;-66
2023/02/05 04:00:33;;;;;;;35.03;13.38;;;5.10;99.90;;;;;;5046291;28;20397;-66
2023/02/05 04:02:59;;;;;;;32.63;15.68;;;5.20;99.90;;;;;;5045562;28;20025;-67
2023/02/05 04:05:25;;;;;;;36.80;14.18;;;5.20;99.90;;;;;;5047455;28;20550;-65
2023/02/05 04:07:50;;;;;;;39.65;14.88;;;5.20;99.90;;;;;;5026443;28;20017;-66
2023/02/05 04:10:17;;;;;;;39.00;14.60;;;5.20;99.90;;;;;;5030841;28;20040;-65
2023/02/05 04:12:43;;;;;;;39.20;14.43;;;5.20;99.90;;;;;;5047293;28;20089;-66
2023/02/05 04:15:09;;;;;;;31.73;14.75;;;5.20;99.90;;;;;;5048491;28;20025;-66
2023/02/05 04:17:36;;;;;;;38.58;16.42;;;5.20;99.90;;;;;;5055325;28;20032;-66
2023/02/05 04:20:03;;;;;;;40.70;15.07;;;5.30;99.90;;;;;;5052101;28;20029;-65
2023/02/05 04:22:28;;;;;;;35.03;15.85;;;5.30;99.90;;;;;;5046908;28;20025;-65
2023/02/05 04:24:54;;;;;;;36.83;13.73;;;5.30;99.90;;;;;;5046445;28;20025;-66
2023/02/05 04:27:19;;;;;;;36.60;14.05;;;5.30;99.90;;;;;;5044140;28;20013;-66
2023/02/05 04:29:45;;;;;;;43.95;14.30;;;5.30;99.90;;;;;;5045699;28;20100;-66
2023/02/05 04:32:10;;;;;;;39.20;14.00;;;5.30;99.90;;;;;;5047602;28;20025;-66
2023/02/05 04:34:36;;;;;;;39.22;13.52;;;5.30;99.90;;;;;;5052714;28;20506;-66
2023/02/05 04:37:02;;;;;;;37.17;14.77;;;5.20;99.90;;;;;;5048448;28;20036;-66
2023/02/05 04:39:27;;;;;;;36.05;14.10;;;5.20;99.90;;;;;;5026860;28;20513;-66
2023/02/05 04:41:53;;;;;;;35.13;14.65;;;5.30;99.90;;;;;;5032596;28;20668;-65
2023/02/05 04:44:19;;;;;;;37.65;15.30;;;5.30;99.90;;;;;;5049340;28;20095;-65
2023/02/05 04:46:44;;;;;;;31.38;14.43;;;5.30;99.90;;;;;;5046228;28;20036;-66
2023/02/05 04:49:10;;;;;;;34.88;16.20;;;5.30;99.90;;;;;;5047509;28;20106;-66
2023/02/05 04:51:35;;;;;;;33.90;14.07;;;5.30;99.90;;;;;;5047972;28;20075;-66
2023/02/05 04:54:01;;;;;;;34.08;15.13;;;5.20;99.90;;;;;;5049874;28;20443;-66
2023/02/05 04:56:27;;;;;;;34.58;15.85;;;5.20;99.90;;;;;;5026696;28;20029;-66
2023/02/05 04:58:52;;;;;;;35.58;14.68;;;5.20;99.90;;;;;;5047565;28;20025;-65
2023/02/05 05:01:20;;;;;;;37.63;14.65;;;5.20;99.90;;;;;;5047135;28;20117;-66
2023/02/05 05:03:47;;;;;;;39.72;15.10;;;5.20;99.90;;;;;;5044187;28;20487;-66
2023/02/05 05:06:13;;;;;;;32.72;14.55;;;5.10;99.90;;;;;;5041507;28;20127;-66
2023/02/05 05:08:39;;;;;;;43.65;13.70;;;5.10;99.90;;;;;;5047364;28;20511;-66
2023/02/05 05:11:13;;;;;;;36.70;15.80;;;5.10;99.90;;;;;;5050901;28;20013;-66
2023/02/05 05:13:39;;;;;;;38.05;14.30;;;5.10;99.90;;;;;;5047487;28;20033;-67
2023/02/05 05:16:06;;;;;;;33.35;14.60;;;5.20;99.90;;;;;;5044671;28;20059;-66
2023/02/05 05:18:33;;;;;;;33.65;15.70;;;5.10;99.90;;;;;;5045138;28;20028;-66
2023/02/05 05:20:59;;;;;;;42.00;15.70;;;5.10;99.90;;;;;;5031275;28;20032;-66
2023/02/05 05:23:25;;;;;;;37.83;14.40;;;5.20;99.90;;;;;;5047805;28;20029;-66
2023/02/05 05:25:51;;;;;;;41.60;15.15;;;5.10;99.90;;;;;;5028356;28;20044;-67
2023/02/05 05:28:17;;;;;;;39.42;14.63;;;5.10;99.90;;;;;;5041838;28;20488;-66
2023/02/05 05:30:44;;;;;;;39.55;15.55;;;5.10;99.90;;;;;;5047289;28;20082;-65
2023/02/05 05:33:11;;;;;;;32.78;14.65;;;5.20;99.90;;;;;;5043904;28;20024;-66
2023/02/05 05:35:37;;;;;;;35.30;14.45;;;5.10;99.90;;;;;;5044160;28;20033;-66
2023/02/05 05:38:03;;;;;;;38.58;14.05;;;5.20;99.90;;;;;;5041521;28;20395;-67
2023/02/05 05:46:01;;;;;;;32.42;13.18;;;5.20;99.90;;;;;;5041597;28;20490;-67
2023/02/05 05:48:27;;;;;;;33.72;13.27;;;5.30;99.90;;;;;;5043208;28;21405;-66
2023/02/05 05:50:53;;;;;;;29.45;12.93;;;5.20;99.90;;;;;;5047659;28;20041;-65
2023/02/05 05:53:19;;;;;;;33.30;13.80;;;5.30;99.90;;;;;;5046994;28;20053;-66
2023/02/05 05:55:45;;;;;;;32.50;13.20;;;5.30;99.90;;;;;;5038914;28;20162;-66
2023/02/05 05:58:10;;;;;;;45.50;12.98;;;5.30;99.90;;;;;;5031895;28;20048;-67
2023/02/05 06:00:37;;;;;;;34.10;13.90;;;5.30;99.90;;;;;;5045982;28;20534;-66
2023/02/05 06:03:03;;;;;;;37.05;14.05;;;5.30;99.90;;;;;;5048683;28;20666;-66
2023/02/05 06:05:29;;;;;;;35.90;13.35;;;5.30;99.90;;;;;;5045604;28;20484;-66
2023/02/05 06:07:55;;;;;;;33.78;15.10;;;5.30;99.90;;;;;;5042657;28;20040;-66
2023/02/05 06:10:20;;;;;;;31.95;13.57;;;5.30;99.90;;;;;;5049239;28;20021;-65
2023/02/05 06:12:46;;;;;;;37.08;14.65;;;5.30;99.90;;;;;;5049353;28;20033;-66
2023/02/05 06:15:12;;;;;;;29.90;13.90;;;5.30;99.90;;;;;;5042406;28;20051;-66
2023/02/05 06:17:37;;;;;;;36.30;14.75;;;5.30;99.90;;;;;;5048263;28;20029;-66
2023/02/05 06:20:04;;;;;;;45.20;13.23;;;5.30;99.90;;;;;;5045442;28;20062;-66
2023/02/05 06:22:30;;;;;;;40.45;15.85;;;5.30;99.90;;;;;;5049220;28;20028;-65
2023/02/05 06:24:55;;;;;;;40.92;12.70;;;5.40;99.90;;;;;;5026849;28;20021;-66
2023/02/05 06:27:21;;;;;;;40.22;15.00;;;5.40;99.90;;;;;;5046176;28;20025;-66
2023/02/05 06:29:46;;;;;;;184.32;52.25;;;5.40;99.90;;;;;;5028557;28;20487;-66
2023/02/05 06:32:12;;;;;;;57.92;24.58;;;5.50;99.90;;;;;;5026327;28;20135;-66
2023/02/05 06:34:38;;;;;;;51.67;17.27;;;5.50;99.90;;;;;;5040020;28;20059;-65
2023/02/05 06:37:03;;;;;;;58.25;18.35;;;5.50;99.90;;;;;;5039927;28;20372;-67
2023/02/05 06:39:29;;;;;;;34.67;15.77;;;5.50;99.90;;;;;;5022924;28;20041;-66
2023/02/05 06:41:54;;;;;;;35.97;15.20;;;5.60;99.90;;;;;;5041625;28;20586;-66
2023/02/05 06:44:20;;;;;;;42.17;18.27;;;5.60;99.90;;;;;;5039450;28;20458;-67
2023/02/05 06:46:46;;;;;;;56.50;20.75;;;5.50;99.90;;;;;;5039104;28;20047;-67
2023/02/05 06:49:11;;;;;;;40.20;17.83;;;5.60;99.90;;;;;;5041302;28;20479;-66
2023/02/05 06:51:37;;;;;;;35.47;14.15;;;5.60;99.90;;;;;;5040136;28;20025;-66
2023/02/05 06:54:02;;;;;;;32.85;12.48;;;5.60;99.90;;;;;;5043518;28;20028;-66
2023/02/05 06:56:28;;;;;;;33.83;14.68;;;5.60;99.90;;;;;;5039259;28;20029;-67
2023/02/05 06:58:54;;;;;;;28.52;14.45;;;5.60;99.90;;;;;;5029834;28;20045;-66
2023/02/05 07:01:19;;;;;;;35.88;12.50;;;5.60;99.90;;;;;;5047126;28;20021;-66
2023/02/05 07:03:47;;;;;;;49.20;20.20;;;5.50;99.90;;;;;;5043097;28;20021;-65
2023/02/05 07:06:13;;;;;;;45.45;18.73;;;5.60;99.90;;;;;;5042325;28;20086;-66
2023/02/05 07:08:38;;;;;;;71.00;25.00;;;5.60;99.90;;;;;;5046935;28;20032;-66
2023/02/05 07:11:04;;;;;;;64.90;23.52;;;5.60;99.90;;;;;;5042910;28;20063;-67
2023/02/05 07:13:30;;;;;;;42.17;18.02;;;5.60;99.90;;;;;;5041574;28;20055;-66
2023/02/05 07:15:55;;;;;;;45.58;18.17;;;5.60;99.90;;;;;;5043621;28;20043;-67
2023/02/05 07:18:21;;;;;;;39.80;16.05;;;5.70;99.90;;;;;;5047422;28;20096;-66
2023/02/05 07:20:47;;;;;;;33.65;14.75;;;5.70;99.90;;;;;;5043644;28;20024;-66
2023/02/05 07:23:13;;;;;;;65.72;21.08;;;5.70;99.90;;;;;;5039481;28;20480;-67
2023/02/05 07:25:39;;;;;;;50.08;17.88;;;5.70;99.90;;;;;;5041045;28;20029;-66
2023/02/05 07:28:06;;;;;;;140.02;45.88;;;5.70;99.90;;;;;;5048372;28;20064;-66
2023/02/05 07:30:32;;;;;;;91.45;33.85;;;5.70;99.90;;;;;;5048231;28;20021;-66
2023/02/05 07:32:59;;;;;;;55.53;22.15;;;5.70;99.90;;;;;;5044616;28;20028;-66
2023/02/05 07:35:25;;;;;;;85.40;26.10;;;5.80;99.90;;;;;;5040499;28;20029;-66
2023/02/05 07:37:51;;;;;;;42.58;18.35;;;5.70;99.90;;;;;;5048573;28;20025;-66
2023/02/05 07:40:16;;;;;;;50.03;16.75;;;5.80;99.90;;;;;;5043527;28;20772;-66
2023/02/05 07:42:42;;;;;;;41.67;15.77;;;5.80;99.90;;;;;;5044573;28;20037;-66
2023/02/05 07:45:08;;;;;;;42.97;17.00;;;5.80;99.90;;;;;;5046073;28;20484;-66
2023/02/05 07:47:33;;;;;;;40.13;14.88;;;5.80;99.90;;;;;;5027760;28;20440;-66
2023/02/05 07:49:59;;;;;;;35.95;15.13;;;5.90;99.90;;;;;;5042673;28;20075;-66
2023/02/05 07:52:25;;;;;;;51.90;19.15;;;5.90;99.90;;;;;;5042869;28;20100;-66
2023/02/05 07:54:50;;;;;;;49.70;20.27;;;5.90;99.90;;;;;;5047437;28;20078;-66
2023/02/05 07:57:16;;;;;;;79.72;27.45;;;6.00;99.90;;;;;;5050585;28;20092;-66
2023/02/05 07:59:41;;;;;;;69.88;26.20;;;6.00;99.90;;;;;;5005378;28;20025;-66
2023/02/05 08:02:09;;;;;;;49.33;17.85;;;6.00;99.90;;;;;;5041721;28;20057;-66
2023/02/05 08:04:34;;;;;;;78.90;26.10;;;6.10;99.90;;;;;;5048840;28;20219;-67
2023/02/05 08:07:00;;;;;;;56.30;24.10;;;6.10;99.90;;;;;;5043946;28;20126;-67
2023/02/05 08:09:25;;;;;;;56.55;21.77;;;6.20;99.90;;;;;;5050484;28;20086;-66
2023/02/05 08:11:51;;;;;;;46.55;22.15;;;6.20;99.90;;;;;;5048010;28;20032;-66
2023/02/05 08:14:17;;;;;;;42.72;18.25;;;6.20;99.90;;;;;;5052611;28;20021;-67
2023/02/05 08:16:42;;;;;;;46.60;20.05;;;6.20;99.90;;;;;;5049637;28;20032;-66
2023/02/05 08:19:13;;;;;;;51.53;20.88;;;6.30;99.90;;;;;;5047479;28;20498;-66
2023/02/05 08:21:39;;;;;;;43.33;20.58;;;6.30;99.90;;;;;;5047788;28;20032;-66
2023/02/05 08:24:05;;;;;;;48.50;21.38;;;6.30;99.90;;;;;;5050799;28;20029;-66
2023/02/05 08:26:30;;;;;;;38.22;17.48;;;6.30;99.90;;;;;;5051062;28;20589;-67
2023/02/05 08:28:56;;;;;;;36.50;15.15;;;6.30;99.90;;;;;;5051029;28;20083;-66
2023/02/05 08:31:21;;;;;;;36.17;16.55;;;6.20;99.90;;;;;;5048763;28;20021;-67
2023/02/05 08:33:49;;;;;;;32.22;12.98;;;6.20;99.90;;;;;;5052405;28;20033;-67
2023/02/05 08:36:15;;;;;;;33.65;15.02;;;6.30;99.90;;;;;;5049535;28;20060;-67
2023/02/05 08:38:41;;;;;;;37.40;15.38;;;6.30;99.90;;;;;;5052846;28;20432;-67
2023/02/05 08:41:12;;;;;;;39.17;15.48;;;6.30;99.90;;;;;;5049695;28;20024;-65
2023/02/05 08:43:43;;;;;;;35.80;14.18;;;6.40;99.90;;;;;;5051335;28;20557;-66
2023/02/05 08:46:09;;;;;;;40.13;17.38;;;6.40;99.90;;;;;;5045737;28;20028;-66
2023/02/05 08:48:35;;;;;;;37.38;15.77;;;6.40;99.90;;;;;;5050295;28;20082;-66
2023/02/05 08:51:02;;;;;;;39.30;16.50;;;6.40;99.90;;;;;;5045658;28;20017;-67
2023/02/05 08:53:28;;;;;;;39.90;14.25;;;6.40;99.90;;;;;;5034012;28;20710;-65
2023/02/05 08:55:59;;;;;;;29.23;13.85;;;6.50;99.90;;;;;;5049162;28;20025;-66
2023/02/05 08:58:26;;;;;;;29.83;12.82;;;6.40;99.90;;;;;;5028726;28;20407;-66
2023/02/05 09:00:58;;;;;;;26.40;12.18;;;6.30;99.90;;;;;;5032944;28;20045;-66
2023/02/05 09:03:23;;;;;;;38.72;15.88;;;6.40;99.90;;;;;;5045243;28;20040;-67
2023/02/05 09:05:49;;;;;;;30.35;12.32;;;6.40;99.90;;;;;;5042654;28;20036;-67
2023/02/05 09:08:14;;;;;;;31.45;13.30;;;6.40;99.90;;;;;;5028293;28;20546;-66
2023/02/05 09:10:43;;;;;;;29.40;12.98;;;6.40;99.90;;;;;;5042323;28;20132;-66
2023/02/05 09:13:09;;;;;;;27.48;11.63;;;6.40;99.90;;;;;;5048641;28;20426;-66
2023/02/05 09:15:39;;;;;;;24.05;11.00;;;6.30;99.90;;;;;;5045137;28;20024;-67
2023/02/05 09:18:04;;;;;;;27.00;13.30;;;6.40;99.90;;;;;;5050449;28;20086;-66
2023/02/05 09:20:30;;;;;;;28.75;13.88;;;6.40;99.90;;;;;;5040139;28;20041;-65
2023/02/05 09:22:55;;;;;;;25.42;12.65;;;6.40;99.90;;;;;;5046708;28;20400;-67
2023/02/05 09:25:21;;;;;;;30.77;14.05;;;6.40;99.90;;;;;;5047292;28;20033;-66
2023/02/05 09:27:47;;;;;;;23.67;11.93;;;6.50;99.90;;;;;;5047700;28;20017;-67
2023/02/05 09:30:13;;;;;;;27.60;13.07;;;6.50;99.90;;;;;;5049325;28;20412;-66
2023/02/05 09:32:38;;;;;;;26.92;12.73;;;6.50;99.90;;;;;;5047735;28;20025;-67
2023/02/05 09:35:04;;;;;;;22.30;13.02;;;6.40;99.90;;;;;;5046175;28;20040;-66
2023/02/05 09:37:30;;;;;;;22.85;12.82;;;6.40;99.90;;;;;;5044114;28;20021;-66
2023/02/05 09:39:55;;;;;;;20.42;10.65;;;6.40;99.90;;;;;;5051001;28;20040;-66
2023/02/05 09:42:47;;;;;;;15.95;9.30;;;6.40;99.90;;;;;;5041996;28;20022;-67
2023/02/05 09:45:33;;;;;;;17.05;8.75;;;6.30;99.90;;;;;;5047825;28;20095;-67
2023/02/05 09:48:09;;;;;;;16.38;8.50;;;6.30;99.90;;;;;;5047601;28;20025;-65
2023/02/05 09:50:36;;;;;;;14.63;7.60;;;6.20;99.90;;;;;;5043274;28;20025;-66
2023/02/05 09:53:06;;;;;;;8.77;5.45;;;6.30;99.90;;;;;;5045277;28;20025;-66
2023/02/05 09:55:36;;;;;;;8.85;4.25;;;6.20;99.90;;;;;;5045637;28;20024;-66
2023/02/05 09:58:07;;;;;;;4.82;3.58;;;6.20;99.90;;;;;;5051127;28;20552;-66
2023/02/05 10:00:58;;;;;;;5.40;3.22;;;6.20;99.90;;;;;;5028338;28;20412;-66
2023/02/05 10:03:42;;;;;;;4.20;2.40;;;6.10;99.90;;;;;;5048659;28;20021;-66
2023/02/05 10:06:37;;;;;;;5.68;3.00;;;6.10;99.90;;;;;;5046884;28;20115;-66
2023/02/05 10:09:24;;;;;;;9.00;4.03;;;6.10;99.90;;;;;;5043074;28;20091;-66
2023/02/05 10:11:53;;;;;;;4.93;3.03;;;6.10;99.90;;;;;;5044652;28;20108;-66
2023/02/05 10:14:43;;;;;;;5.90;1.90;;;6.20;99.90;;;;;;5048849;28;20017;-65
2023/02/05 10:17:33;;;;;;;2.45;1.10;;;6.10;99.90;;;;;;5040088;28;20430;-66
2023/02/05 10:19:59;;;;;;;4.93;1.65;;;6.20;99.90;;;;;;5035834;28;20032;-65
2023/02/05 10:22:56;;;;;;;3.75;0.93;;;6.10;99.90;;;;;;5046562;28;20021;-65
2023/02/05 10:25:41;;;;;;;2.45;0.60;;;6.20;99.90;;;;;;5045145;28;20028;-65
2023/02/05 10:28:43;;;;;;;1.60;0.80;;;6.20;99.90;;;;;;5045785;28;20029;-67
2023/02/05 10:31:41;;;;;;;1.70;1.33;;;6.10;99.90;;;;;;5049044;28;20025;-66
2023/02/05 10:34:17;;;;;;;4.35;1.45;;;6.10;99.90;;;;;;5040027;28;20093;-66
2023/02/05 10:36:47;;;;;;;1.80;1.08;;;6.10;99.90;;;;;;5039812;28;20020;-66
2023/02/05 10:39:16;;;;;;;5.03;1.67;;;6.10;99.90;;;;;;5023508;28;20029;-66
2023/02/05 10:41:52;;;;;;;2.42;0.88;;;6.00;99.90;;;;;;5045224;28;20100;-65
2023/02/05 10:44:31;;;;;;;1.05;0.90;;;6.10;99.90;;;;;;5047150;28;20028;-66
2023/02/05 10:47:09;;;;;;;2.15;0.50;;;6.10;99.90;;;;;;5042622;28;20021;-66
2023/02/05 10:49:53;;;;;;;2.53;1.27;;;6.10;99.90;;;;;;5046520;28;20495;-65
2023/02/05 10:52:19;;;;;;;2.15;1.35;;;6.20;99.90;;;;;;5047776;28;20092;-66
2023/02/05 10:54:45;;;;;;;3.67;1.35;;;6.10;99.90;;;;;;5041811;28;20111;-66
2023/02/05 10:57:17;;;;;;;2.05;1.17;;;6.20;99.90;;;;;;5047850;28;20017;-65
2023/02/05 10:59:59;;;;;;;1.60;1.17;;;6.40;99.90;;;;;;5045464;28;20021;-66
2023/02/05 11:02:37;;;;;;;4.18;0.90;;;6.60;99.90;;;;;;5041753;28;20179;-66
2023/02/05 11:05:14;;;;;;;6.05;0.93;;;6.70;99.90;;;;;;5046962;28;20116;-66
2023/02/05 11:07:48;;;;;;;1.67;0.77;;;6.60;99.90;;;;;;5047325;28;20021;-66
2023/02/05 11:10:23;;;;;;;2.33;0.80;;;6.60;99.90;;;;;;5047874;28;20025;-65
2023/02/05 11:12:53;;;;;;;2.22;0.77;;;6.50;99.90;;;;;;5038591;28;20029;-66
2023/02/05 11:15:22;;;;;;;1.45;0.60;;;6.60;99.90;;;;;;5025047;28;20154;-66
2023/02/05 11:17:59;;;;;;;1.65;0.75;;;6.70;99.90;;;;;;5039087;28;20025;-66
2023/02/05 11:20:38;;;;;;;2.78;1.58;;;6.80;99.90;;;;;;5045274;28;20025;-66
2023/02/05 11:23:22;;;;;;;2.88;2.55;;;6.90;99.90;;;;;;5043546;28;20395;-65
2023/02/05 11:26:08;;;;;;;2.55;1.50;;;6.80;99.90;;;;;;5040747;28;20495;-66
2023/02/05 11:28:36;;;;;;;2.50;1.52;;;6.70;99.90;;;;;;5045907;28;20504;-66
2023/02/05 11:31:30;;;;;;;4.10;1.65;;;6.60;99.90;;;;;;5048232;28;20423;-66
2023/02/05 11:34:15;;;;;;;;;;;6.50;99.90;;;;;;5038102;28;20042;-66
2023/02/05 11:36:56;;;;;;;4.65;2.15;;;6.40;99.90;;;;;;5043990;28;19924;-66
2023/02/05 11:39:38;;;;;;;9.27;2.90;;;6.50;99.90;;;;;;5048015;28;20400;-66
2023/02/05 11:42:30;;;;;;;7.40;2.80;;;6.40;99.90;;;;;;5049284;28;20033;-67
2023/02/05 11:44:59;;;;;;;7.78;2.88;;;6.40;99.90;;;;;;5048354;28;20041;-66
2023/02/05 11:47:33;;;;;;;6.68;3.15;;;6.50;99.90;;;;;;5044374;28;20037;-67
2023/02/05 11:49:59;;;;;;;6.50;3.97;;;6.60;99.90;;;;;;5043797;28;20024;-66
2023/02/05 11:52:36;;;;;;;7.43;3.00;;;6.60;99.90;;;;;;5051410;28;20025;-66
2023/02/05 11:55:02;;;;;;;7.75;3.17;;;6.60;99.90;;;;;;5050965;28;20048;-66
2023/02/05 11:57:40;;;;;;;6.55;3.13;;;6.60;99.90;;;;;;5048136;28;20029;-66
2023/02/05 12:00:12;;;;;;;5.25;2.70;;;6.70;99.90;;;;;;5050128;28;20021;-66
2023/02/05 12:02:39;;;;;;;5.43;3.35;;;6.80;99.90;;;;;;5043879;28;20410;-66
2023/02/05 12:05:11;;;;;;;4.88;2.50;;;6.70;99.90;;;;;;5043403;28;20036;-67
2023/02/05 12:07:56;;;;;;;7.72;2.72;;;6.70;99.90;;;;;;5039982;28;20043;-67
2023/02/05 12:10:27;;;;;;;4.88;2.53;;;6.70;99.90;;;;;;5047701;28;20037;-67
2023/02/05 12:13:05;;;;;;;7.60;3.15;;;6.70;99.90;;;;;;5047703;28;20376;-67
2023/02/05 12:16:12;;;;;;;5.28;3.20;;;6.70;99.90;;;;;;5038044;28;20029;-66
2023/02/05 12:18:55;;;;;;;7.65;2.53;;;6.70;99.90;;;;;;5009177;28;20499;-66
2023/02/05 12:21:41;;;;;;;5.40;2.83;;;6.70;99.90;;;;;;5038414;28;20049;-66
2023/02/05 12:24:40;;;;;;;4.10;2.22;;;6.60;99.90;;;;;;5018356;28;20123;-67
2023/02/05 12:27:38;;;;;;;3.28;2.28;;;6.50;99.90;;;;;;5039132;28;20159;-65
2023/02/05 12:30:13;;;;;;;3.83;2.08;;;6.50;99.90;;;;;;5037523;28;20033;-66
2023/02/05 12:33:11;;;;;;;2.20;1.90;;;6.50;99.90;;;;;;5039483;28;20039;-66
2023/02/05 12:36:01;;;;;;;5.10;2.83;;;6.40;99.90;;;;;;5033380;28;20110;-67
2023/02/05 12:39:09;;;;;;;5.85;2.00;;;6.20;99.90;;;;;;5047823;28;20110;-66
2023/02/05 12:42:01;;;;;;;3.67;1.63;;;6.20;99.90;;;;;;5038193;28;20060;-66
2023/02/05 12:44:45;;;;;;;7.13;1.63;;;6.20;99.90;;;;;;5040324;28;20446;-67
2023/02/05 12:47:40;;;;;;;4.53;1.73;;;6.20;99.90;;;;;;5043166;28;20527;-67
2023/02/05 12:50:13;;;;;;;6.63;2.15;;;6.10;99.90;;;;;;5043473;28;20112;-66
2023/02/05 12:52:45;;;;;;;3.33;1.50;;;6.20;99.90;;;;;;5039986;28;20052;-66
2023/02/05 12:55:39;;;;;;;4.18;1.60;;;6.20;99.90;;;;;;5042545;28;20029;-65
2023/02/05 12:58:10;;;;;;;2.38;1.55;;;6.30;99.90;;;;;;5038169;28;21254;-66
2023/02/05 13:00:46;;;;;;;4.93;2.25;;;6.30;99.90;;;;;;5042271;28;21110;-66
2023/02/05 13:03:24;;;;;;;5.65;1.20;;;6.20;99.90;;;;;;5046066;28;20052;-66
2023/02/05 13:05:55;;;;;;;5.10;1.70;;;6.20;99.90;;;;;;5040170;28;20056;-66
2023/02/05 13:08:36;;;;;;;4.10;1.23;;;6.20;99.90;;;;;;5043512;28;20030;-66